Terminal Aerodrome Forecast
Issued by NWS

Home | Current Version | Previous Version | Graphics & Text | Print | Product List | Glossary On
Versions: 1 2 3 4 5 6 7 8 9 10 11 12 13 14 15
000
FTUS43 KBIS 190535
TAFMOT
TAF
KMOT 190535Z 1906/2006 21006KT P6SM FEW120 SCT250
     FM191000 20007KT P6SM SCT250 WS020/22030KT
     FM191600 21010KT P6SM FEW300
     FM192300 17007KT P6SM SKC=

USA.gov is the U.S. government's official web portal to all federal, state and local government web resources and services.